sensor_id;sensor_type;location;lat;lon;timestamp;P1;durP1;ratioP1;P2;durP2;ratioP2
55292;SDS011;41157;53.560;10.098;2024-01-11T00:01:55;21.70;;;10.87;;
55292;SDS011;41157;53.560;10.098;2024-01-11T00:04:22;23.90;;;12.23;;
55292;SDS011;41157;53.560;10.098;2024-01-11T00:06:49;23.53;;;12.10;;
55292;SDS011;41157;53.560;10.098;2024-01-11T00:09:16;24.07;;;12.67;;
55292;SDS011;41157;53.560;10.098;2024-01-11T00:11:43;24.47;;;12.40;;
55292;SDS011;41157;53.560;10.098;2024-01-11T00:14:10;24.87;;;12.80;;
55292;SDS011;41157;53.560;10.098;2024-01-11T00:16:37;29.07;;;12.87;;
55292;SDS011;41157;53.560;10.098;2024-01-11T00:19:06;23.43;;;12.30;;
55292;SDS011;41157;53.560;10.098;2024-01-11T00:21:33;19.23;;;11.43;;
55292;SDS011;41157;53.560;10.098;2024-01-11T00:24:00;19.70;;;10.97;;
55292;SDS011;41157;53.560;10.098;2024-01-11T00:26:27;20.93;;;11.23;;
55292;SDS011;41157;53.560;10.098;2024-01-11T00:28:54;23.67;;;12.23;;
55292;SDS011;41157;53.560;10.098;2024-01-11T00:31:21;20.83;;;11.23;;
55292;SDS011;41157;53.560;10.098;2024-01-11T00:33:48;26.37;;;13.07;;
55292;SDS011;41157;53.560;10.098;2024-01-11T00:36:18;25.37;;;12.50;;
55292;SDS011;41157;53.560;10.098;2024-01-11T00:38:45;24.07;;;13.33;;
55292;SDS011;41157;53.560;10.098;2024-01-11T00:41:12;22.03;;;12.00;;
55292;SDS011;41157;53.560;10.098;2024-01-11T00:43:39;24.90;;;12.23;;
55292;SDS011;41157;53.560;10.098;2024-01-11T00:46:06;21.50;;;11.40;;
55292;SDS011;41157;53.560;10.098;2024-01-11T00:48:33;19.13;;;11.07;;
55292;SDS011;41157;53.560;10.098;2024-01-11T00:51:00;23.10;;;11.30;;
55292;SDS011;41157;53.560;10.098;2024-01-11T00:53:29;24.60;;;13.20;;
55292;SDS011;41157;53.560;10.098;2024-01-11T00:55:56;25.23;;;12.63;;
55292;SDS011;41157;53.560;10.098;2024-01-11T00:58:23;29.30;;;13.37;;
55292;SDS011;41157;53.560;10.098;2024-01-11T01:00:50;24.97;;;12.93;;
55292;SDS011;41157;53.560;10.098;2024-01-11T01:03:17;26.73;;;12.57;;
55292;SDS011;41157;53.560;10.098;2024-01-11T01:05:44;30.43;;;14.27;;
55292;SDS011;41157;53.560;10.098;2024-01-11T01:08:11;26.77;;;12.73;;
55292;SDS011;41157;53.560;10.098;2024-01-11T01:10:40;26.03;;;13.73;;
55292;SDS011;41157;53.560;10.098;2024-01-11T01:13:07;24.17;;;12.10;;
55292;SDS011;41157;53.560;10.098;2024-01-11T01:15:34;26.17;;;12.77;;
55292;SDS011;41157;53.560;10.098;2024-01-11T01:18:01;23.80;;;12.13;;
55292;SDS011;41157;53.560;10.098;2024-01-11T01:20:27;25.80;;;13.07;;
55292;SDS011;41157;53.560;10.098;2024-01-11T01:22:54;29.40;;;12.97;;
55292;SDS011;41157;53.560;10.098;2024-01-11T01:25:21;22.23;;;11.60;;
55292;SDS011;41157;53.560;10.098;2024-01-11T01:27:49;20.53;;;11.70;;
55292;SDS011;41157;53.560;10.098;2024-01-11T01:30:16;24.33;;;12.07;;
55292;SDS011;41157;53.560;10.098;2024-01-11T01:32:43;21.40;;;11.37;;
55292;SDS011;41157;53.560;10.098;2024-01-11T01:35:10;22.70;;;11.10;;
55292;SDS011;41157;53.560;10.098;2024-01-11T01:37:37;21.03;;;10.40;;
55292;SDS011;41157;53.560;10.098;2024-01-11T01:40:05;24.07;;;11.70;;
55292;SDS011;41157;53.560;10.098;2024-01-11T01:42:32;24.30;;;11.77;;
55292;SDS011;41157;53.560;10.098;2024-01-11T01:45:00;23.53;;;11.83;;
55292;SDS011;41157;53.560;10.098;2024-01-11T01:47:27;21.87;;;11.70;;
55292;SDS011;41157;53.560;10.098;2024-01-11T01:49:54;24.13;;;12.13;;
55292;SDS011;41157;53.560;10.098;2024-01-11T01:52:22;23.50;;;12.30;;
55292;SDS011;41157;53.560;10.098;2024-01-11T01:54:49;22.83;;;11.60;;
55292;SDS011;41157;53.560;10.098;2024-01-11T01:57:16;23.57;;;12.17;;
55292;SDS011;41157;53.560;10.098;2024-01-11T01:59:45;20.37;;;10.87;;
55292;SDS011;41157;53.560;10.098;2024-01-11T02:02:14;19.13;;;10.43;;
55292;SDS011;41157;53.560;10.098;2024-01-11T02:04:42;21.60;;;11.17;;
55292;SDS011;41157;53.560;10.098;2024-01-11T02:07:09;20.43;;;11.23;;
55292;SDS011;41157;53.560;10.098;2024-01-11T02:09:37;19.13;;;10.20;;
55292;SDS011;41157;53.560;10.098;2024-01-11T02:12:04;21.00;;;10.70;;
55292;SDS011;41157;53.560;10.098;2024-01-11T02:14:36;19.00;;;10.63;;
55292;SDS011;41157;53.560;10.098;2024-01-11T02:17:04;22.60;;;11.70;;
55292;SDS011;41157;53.560;10.098;2024-01-11T02:19:32;19.60;;;10.93;;
55292;SDS011;41157;53.560;10.098;2024-01-11T02:22:00;21.17;;;11.97;;
55292;SDS011;41157;53.560;10.098;2024-01-11T02:24:30;20.70;;;11.13;;
55292;SDS011;41157;53.560;10.098;2024-01-11T02:26:58;24.87;;;11.30;;
55292;SDS011;41157;53.560;10.098;2024-01-11T02:29:25;20.93;;;10.40;;
55292;SDS011;41157;53.560;10.098;2024-01-11T02:31:52;20.30;;;11.37;;
55292;SDS011;41157;53.560;10.098;2024-01-11T02:34:19;27.27;;;12.30;;
55292;SDS011;41157;53.560;10.098;2024-01-11T02:36:46;23.77;;;11.37;;
55292;SDS011;41157;53.560;10.098;2024-01-11T02:39:14;24.60;;;11.97;;
55292;SDS011;41157;53.560;10.098;2024-01-11T02:41:44;22.13;;;12.00;;
55292;SDS011;41157;53.560;10.098;2024-01-11T02:44:11;23.17;;;12.00;;
55292;SDS011;41157;53.560;10.098;2024-01-11T02:46:38;23.60;;;11.60;;
55292;SDS011;41157;53.560;10.098;2024-01-11T02:49:05;23.50;;;12.23;;
55292;SDS011;41157;53.560;10.098;2024-01-11T02:51:32;24.00;;;12.70;;
55292;SDS011;41157;53.560;10.098;2024-01-11T02:53:59;29.80;;;14.53;;
55292;SDS011;41157;53.560;10.098;2024-01-11T02:56:26;28.37;;;14.27;;
55292;SDS011;41157;53.560;10.098;2024-01-11T02:58:54;26.90;;;14.27;;
55292;SDS011;41157;53.560;10.098;2024-01-11T03:01:21;29.47;;;14.73;;
55292;SDS011;41157;53.560;10.098;2024-01-11T03:03:48;28.10;;;14.27;;
55292;SDS011;41157;53.560;10.098;2024-01-11T03:06:15;30.83;;;14.67;;
55292;SDS011;41157;53.560;10.098;2024-01-11T03:08:46;28.07;;;13.93;;
55292;SDS011;41157;53.560;10.098;2024-01-11T03:11:13;24.97;;;13.73;;
55292;SDS011;41157;53.560;10.098;2024-01-11T03:13:41;27.77;;;13.33;;
55292;SDS011;41157;53.560;10.098;2024-01-11T03:16:09;27.33;;;13.60;;
55292;SDS011;41157;53.560;10.098;2024-01-11T03:18:36;24.73;;;13.00;;
55292;SDS011;41157;53.560;10.098;2024-01-11T03:21:04;30.77;;;14.30;;
55292;SDS011;41157;53.560;10.098;2024-01-11T03:23:31;30.93;;;14.87;;
55292;SDS011;41157;53.560;10.098;2024-01-11T03:25:58;31.00;;;14.63;;
55292;SDS011;41157;53.560;10.098;2024-01-11T03:28:25;31.67;;;15.07;;
55292;SDS011;41157;53.560;10.098;2024-01-11T03:30:52;28.67;;;14.00;;
55292;SDS011;41157;53.560;10.098;2024-01-11T03:33:21;30.00;;;14.03;;
55292;SDS011;41157;53.560;10.098;2024-01-11T03:35:48;28.17;;;13.47;;
55292;SDS011;41157;53.560;10.098;2024-01-11T03:38:15;31.83;;;14.70;;
55292;SDS011;41157;53.560;10.098;2024-01-11T03:40:42;30.03;;;14.63;;
55292;SDS011;41157;53.560;10.098;2024-01-11T03:43:09;30.67;;;14.33;;
55292;SDS011;41157;53.560;10.098;2024-01-11T03:45:36;29.27;;;14.83;;
55292;SDS011;41157;53.560;10.098;2024-01-11T03:48:03;26.43;;;13.40;;
55292;SDS011;41157;53.560;10.098;2024-01-11T03:50:32;27.50;;;14.63;;
55292;SDS011;41157;53.560;10.098;2024-01-11T03:52:59;28.53;;;13.40;;
55292;SDS011;41157;53.560;10.098;2024-01-11T03:55:26;24.97;;;13.20;;
55292;SDS011;41157;53.560;10.098;2024-01-11T03:57:52;25.23;;;12.20;;
55292;SDS011;41157;53.560;10.098;2024-01-11T04:00:19;27.33;;;13.30;;
55292;SDS011;41157;53.560;10.098;2024-01-11T04:02:46;25.80;;;12.80;;
55292;SDS011;41157;53.560;10.098;2024-01-11T04:05:13;30.27;;;13.33;;
55292;SDS011;41157;53.560;10.098;2024-01-11T04:07:43;26.73;;;13.30;;
55292;SDS011;41157;53.560;10.098;2024-01-11T04:10:10;26.83;;;13.83;;
55292;SDS011;41157;53.560;10.098;2024-01-11T04:12:37;28.77;;;13.37;;
55292;SDS011;41157;53.560;10.098;2024-01-11T04:15:04;27.07;;;13.77;;
55292;SDS011;41157;53.560;10.098;2024-01-11T04:17:31;29.37;;;14.13;;
55292;SDS011;41157;53.560;10.098;2024-01-11T04:19:58;23.43;;;12.47;;
55292;SDS011;41157;53.560;10.098;2024-01-11T04:22:25;28.00;;;13.63;;
55292;SDS011;41157;53.560;10.098;2024-01-11T04:24:55;28.33;;;14.57;;
55292;SDS011;41157;53.560;10.098;2024-01-11T04:27:22;28.77;;;13.67;;
55292;SDS011;41157;53.560;10.098;2024-01-11T04:29:49;38.27;;;16.87;;
55292;SDS011;41157;53.560;10.098;2024-01-11T04:32:16;31.10;;;15.80;;
55292;SDS011;41157;53.560;10.098;2024-01-11T04:34:43;35.87;;;16.83;;
55292;SDS011;41157;53.560;10.098;2024-01-11T04:37:10;32.30;;;16.10;;
55292;SDS011;41157;53.560;10.098;2024-01-11T04:39:37;36.80;;;16.90;;
55292;SDS011;41157;53.560;10.098;2024-01-11T04:42:06;40.90;;;17.60;;
55292;SDS011;41157;53.560;10.098;2024-01-11T04:44:33;35.90;;;17.33;;
55292;SDS011;41157;53.560;10.098;2024-01-11T04:47:00;38.17;;;16.73;;
55292;SDS011;41157;53.560;10.098;2024-01-11T04:49:27;44.83;;;19.63;;
55292;SDS011;41157;53.560;10.098;2024-01-11T04:51:54;44.40;;;20.03;;
55292;SDS011;41157;53.560;10.098;2024-01-11T04:54:21;44.43;;;19.63;;
55292;SDS011;41157;53.560;10.098;2024-01-11T04:56:48;44.97;;;20.50;;
55292;SDS011;41157;53.560;10.098;2024-01-11T04:59:16;41.27;;;19.43;;
55292;SDS011;41157;53.560;10.098;2024-01-11T05:01:45;39.97;;;19.40;;
55292;SDS011;41157;53.560;10.098;2024-01-11T05:04:12;52.17;;;22.80;;
55292;SDS011;41157;53.560;10.098;2024-01-11T05:06:39;48.27;;;22.20;;
55292;SDS011;41157;53.560;10.098;2024-01-11T05:09:06;46.87;;;21.30;;
55292;SDS011;41157;53.560;10.098;2024-01-11T05:11:33;45.27;;;22.13;;
55292;SDS011;41157;53.560;10.098;2024-01-11T05:14:00;41.53;;;19.77;;
55292;SDS011;41157;53.560;10.098;2024-01-11T05:16:28;45.30;;;21.73;;
55292;SDS011;41157;53.560;10.098;2024-01-11T05:18:56;43.03;;;20.03;;
55292;SDS011;41157;53.560;10.098;2024-01-11T05:21:23;35.47;;;17.87;;
55292;SDS011;41157;53.560;10.098;2024-01-11T05:23:50;40.90;;;19.53;;
55292;SDS011;41157;53.560;10.098;2024-01-11T05:26:18;37.67;;;17.63;;
55292;SDS011;41157;53.560;10.098;2024-01-11T05:28:45;39.97;;;19.07;;
55292;SDS011;41157;53.560;10.098;2024-01-11T05:31:12;38.77;;;18.23;;
55292;SDS011;41157;53.560;10.098;2024-01-11T05:33:42;41.63;;;19.57;;
55292;SDS011;41157;53.560;10.098;2024-01-11T05:36:09;41.03;;;18.83;;
55292;SDS011;41157;53.560;10.098;2024-01-11T05:38:37;37.00;;;19.10;;
55292;SDS011;41157;53.560;10.098;2024-01-11T05:41:05;40.43;;;19.07;;
55292;SDS011;41157;53.560;10.098;2024-01-11T05:43:32;38.30;;;18.87;;
55292;SDS011;41157;53.560;10.098;2024-01-11T05:45:59;40.83;;;19.03;;
55292;SDS011;41157;53.560;10.098;2024-01-11T05:48:27;37.63;;;18.70;;
55292;SDS011;41157;53.560;10.098;2024-01-11T05:50:55;36.43;;;18.03;;
55292;SDS011;41157;53.560;10.098;2024-01-11T05:53:22;36.50;;;18.27;;
55292;SDS011;41157;53.560;10.098;2024-01-11T05:55:50;34.77;;;17.30;;
55292;SDS011;41157;53.560;10.098;2024-01-11T05:58:17;34.73;;;16.23;;
55292;SDS011;41157;53.560;10.098;2024-01-11T06:00:44;34.37;;;16.17;;
55292;SDS011;41157;53.560;10.098;2024-01-11T06:03:12;33.70;;;16.17;;
55292;SDS011;41157;53.560;10.098;2024-01-11T06:05:39;33.40;;;16.00;;
55292;SDS011;41157;53.560;10.098;2024-01-11T06:08:07;35.97;;;16.20;;
55292;SDS011;41157;53.560;10.098;2024-01-11T06:10:34;38.53;;;19.43;;
55292;SDS011;41157;53.560;10.098;2024-01-11T06:13:01;33.47;;;15.57;;
55292;SDS011;41157;53.560;10.098;2024-01-11T06:15:28;34.67;;;16.07;;
55292;SDS011;41157;53.560;10.098;2024-01-11T06:17:55;35.37;;;16.23;;
55292;SDS011;41157;53.560;10.098;2024-01-11T06:20:22;32.90;;;15.57;;
55292;SDS011;41157;53.560;10.098;2024-01-11T06:22:49;34.93;;;16.00;;
55292;SDS011;41157;53.560;10.098;2024-01-11T06:25:18;34.37;;;16.17;;
55292;SDS011;41157;53.560;10.098;2024-01-11T06:27:46;34.03;;;17.27;;
55292;SDS011;41157;53.560;10.098;2024-01-11T06:30:13;35.47;;;16.70;;
55292;SDS011;41157;53.560;10.098;2024-01-11T06:32:40;35.33;;;16.20;;
55292;SDS011;41157;53.560;10.098;2024-01-11T06:35:08;32.03;;;15.90;;
55292;SDS011;41157;53.560;10.098;2024-01-11T06:37:34;31.63;;;14.13;;
55292;SDS011;41157;53.560;10.098;2024-01-11T06:40:02;38.37;;;15.50;;
55292;SDS011;41157;53.560;10.098;2024-01-11T06:42:31;28.10;;;15.17;;
55292;SDS011;41157;53.560;10.098;2024-01-11T06:44:58;33.60;;;14.63;;
55292;SDS011;41157;53.560;10.098;2024-01-11T06:47:25;29.73;;;13.63;;
55292;SDS011;41157;53.560;10.098;2024-01-11T06:49:52;30.03;;;14.50;;
55292;SDS011;41157;53.560;10.098;2024-01-11T06:52:19;31.80;;;14.00;;
55292;SDS011;41157;53.560;10.098;2024-01-11T06:54:46;30.80;;;13.97;;
55292;SDS011;41157;53.560;10.098;2024-01-11T06:57:13;27.73;;;13.83;;
55292;SDS011;41157;53.560;10.098;2024-01-11T06:59:42;31.23;;;13.30;;
55292;SDS011;41157;53.560;10.098;2024-01-11T07:02:11;30.33;;;13.60;;
55292;SDS011;41157;53.560;10.098;2024-01-11T07:04:38;30.97;;;15.07;;
55292;SDS011;41157;53.560;10.098;2024-01-11T07:07:09;30.93;;;14.43;;
55292;SDS011;41157;53.560;10.098;2024-01-11T07:09:36;39.07;;;15.73;;
55292;SDS011;41157;53.560;10.098;2024-01-11T07:12:04;33.53;;;15.43;;
55292;SDS011;41157;53.560;10.098;2024-01-11T07:14:31;35.17;;;15.40;;
55292;SDS011;41157;53.560;10.098;2024-01-11T07:16:59;31.93;;;13.80;;
55292;SDS011;41157;53.560;10.098;2024-01-11T07:19:27;26.50;;;12.87;;
55292;SDS011;41157;53.560;10.098;2024-01-11T07:21:54;29.30;;;12.17;;
55292;SDS011;41157;53.560;10.098;2024-01-11T07:24:21;31.27;;;13.63;;
55292;SDS011;41157;53.560;10.098;2024-01-11T07:26:48;44.23;;;16.40;;
55292;SDS011;41157;53.560;10.098;2024-01-11T07:29:15;39.73;;;15.27;;
55292;SDS011;41157;53.560;10.098;2024-01-11T07:31:42;33.97;;;14.10;;
55292;SDS011;41157;53.560;10.098;2024-01-11T07:34:10;31.87;;;12.00;;
55292;SDS011;41157;53.560;10.098;2024-01-11T07:36:37;26.47;;;11.27;;
55292;SDS011;41157;53.560;10.098;2024-01-11T07:39:04;21.17;;;9.13;;
55292;SDS011;41157;53.560;10.098;2024-01-11T07:41:31;21.90;;;9.50;;
55292;SDS011;41157;53.560;10.098;2024-01-11T07:43:58;21.83;;;8.37;;
55292;SDS011;41157;53.560;10.098;2024-01-11T07:46:25;21.70;;;9.17;;
55292;SDS011;41157;53.560;10.098;2024-01-11T07:48:52;19.93;;;9.13;;
55292;SDS011;41157;53.560;10.098;2024-01-11T07:51:20;18.23;;;8.47;;
55292;SDS011;41157;53.560;10.098;2024-01-11T07:53:47;24.87;;;9.60;;
55292;SDS011;41157;53.560;10.098;2024-01-11T07:56:14;20.23;;;9.40;;
55292;SDS011;41157;53.560;10.098;2024-01-11T07:58:42;24.13;;;8.90;;
55292;SDS011;41157;53.560;10.098;2024-01-11T08:01:09;20.07;;;8.93;;
55292;SDS011;41157;53.560;10.098;2024-01-11T08:03:37;20.03;;;8.00;;
55292;SDS011;41157;53.560;10.098;2024-01-11T08:06:06;19.67;;;8.20;;
55292;SDS011;41157;53.560;10.098;2024-01-11T08:08:35;17.80;;;7.67;;
55292;SDS011;41157;53.560;10.098;2024-01-11T08:11:03;18.40;;;7.33;;
55292;SDS011;41157;53.560;10.098;2024-01-11T08:13:30;25.57;;;8.80;;
55292;SDS011;41157;53.560;10.098;2024-01-11T08:15:59;21.53;;;9.10;;
55292;SDS011;41157;53.560;10.098;2024-01-11T08:18:28;20.97;;;7.83;;
55292;SDS011;41157;53.560;10.098;2024-01-11T08:20:56;20.33;;;8.83;;
55292;SDS011;41157;53.560;10.098;2024-01-11T08:23:22;19.67;;;8.07;;
55292;SDS011;41157;53.560;10.098;2024-01-11T08:25:51;20.30;;;7.80;;
55292;SDS011;41157;53.560;10.098;2024-01-11T08:28:18;19.83;;;7.77;;
55292;SDS011;41157;53.560;10.098;2024-01-11T08:30:45;21.80;;;8.77;;
55292;SDS011;41157;53.560;10.098;2024-01-11T08:33:12;19.57;;;8.67;;
55292;SDS011;41157;53.560;10.098;2024-01-11T08:35:39;21.73;;;7.50;;
55292;SDS011;41157;53.560;10.098;2024-01-11T08:38:06;17.50;;;7.67;;
55292;SDS011;41157;53.560;10.098;2024-01-11T08:40:33;17.10;;;8.07;;
55292;SDS011;41157;53.560;10.098;2024-01-11T08:43:02;22.70;;;9.00;;
55292;SDS011;41157;53.560;10.098;2024-01-11T08:45:31;23.00;;;8.10;;
55292;SDS011;41157;53.560;10.098;2024-01-11T08:47:58;18.30;;;8.57;;
55292;SDS011;41157;53.560;10.098;2024-01-11T08:50:25;22.60;;;8.30;;
55292;SDS011;41157;53.560;10.098;2024-01-11T08:52:52;21.33;;;7.93;;
55292;SDS011;41157;53.560;10.098;2024-01-11T08:55:20;17.37;;;7.30;;
55292;SDS011;41157;53.560;10.098;2024-01-11T08:57:47;22.33;;;7.57;;
55292;SDS011;41157;53.560;10.098;2024-01-11T09:00:16;17.57;;;7.37;;
55292;SDS011;41157;53.560;10.098;2024-01-11T09:02:43;22.70;;;7.37;;
55292;SDS011;41157;53.560;10.098;2024-01-11T09:05:10;27.23;;;8.43;;
55292;SDS011;41157;53.560;10.098;2024-01-11T09:07:37;23.00;;;8.73;;
55292;SDS011;41157;53.560;10.098;2024-01-11T09:10:05;26.07;;;8.93;;
55292;SDS011;41157;53.560;10.098;2024-01-11T09:12:33;25.97;;;8.43;;
55292;SDS011;41157;53.560;10.098;2024-01-11T09:15:00;22.63;;;8.43;;
55292;SDS011;41157;53.560;10.098;2024-01-11T09:17:28;18.50;;;7.60;;
55292;SDS011;41157;53.560;10.098;2024-01-11T09:19:55;20.57;;;7.30;;
55292;SDS011;41157;53.560;10.098;2024-01-11T09:22:22;18.37;;;7.10;;
55292;SDS011;41157;53.560;10.098;2024-01-11T09:24:49;20.77;;;7.60;;
55292;SDS011;41157;53.560;10.098;2024-01-11T09:27:17;17.87;;;7.57;;
55292;SDS011;41157;53.560;10.098;2024-01-11T09:29:44;17.30;;;7.43;;
55292;SDS011;41157;53.560;10.098;2024-01-11T09:32:11;22.50;;;8.23;;
55292;SDS011;41157;53.560;10.098;2024-01-11T09:34:40;20.47;;;8.30;;
55292;SDS011;41157;53.560;10.098;2024-01-11T09:37:09;19.37;;;7.53;;
55292;SDS011;41157;53.560;10.098;2024-01-11T09:39:36;20.90;;;8.10;;
55292;SDS011;41157;53.560;10.098;2024-01-11T09:42:04;17.47;;;8.13;;
55292;SDS011;41157;53.560;10.098;2024-01-11T09:44:34;19.50;;;7.67;;
55292;SDS011;41157;53.560;10.098;2024-01-11T09:47:03;16.40;;;6.87;;
55292;SDS011;41157;53.560;10.098;2024-01-11T09:49:33;19.03;;;7.27;;
55292;SDS011;41157;53.560;10.098;2024-01-11T09:52:05;18.83;;;8.17;;
55292;SDS011;41157;53.560;10.098;2024-01-11T09:54:34;17.83;;;7.43;;
55292;SDS011;41157;53.560;10.098;2024-01-11T09:57:02;15.60;;;6.73;;
55292;SDS011;41157;53.560;10.098;2024-01-11T09:59:29;21.57;;;6.77;;
55292;SDS011;41157;53.560;10.098;2024-01-11T10:01:57;17.57;;;7.33;;
55292;SDS011;41157;53.560;10.098;2024-01-11T10:04:24;15.07;;;7.13;;
55292;SDS011;41157;53.560;10.098;2024-01-11T10:06:51;23.37;;;6.90;;
55292;SDS011;41157;53.560;10.098;2024-01-11T10:09:20;16.50;;;6.87;;
55292;SDS011;41157;53.560;10.098;2024-01-11T10:11:47;17.67;;;7.13;;
55292;SDS011;41157;53.560;10.098;2024-01-11T10:14:16;28.77;;;7.17;;
55292;SDS011;41157;53.560;10.098;2024-01-11T10:16:43;14.70;;;6.50;;
55292;SDS011;41157;53.560;10.098;2024-01-11T10:19:10;15.23;;;6.23;;
55292;SDS011;41157;53.560;10.098;2024-01-11T10:21:38;15.67;;;6.90;;
55292;SDS011;41157;53.560;10.098;2024-01-11T10:24:06;16.33;;;6.73;;
55292;SDS011;41157;53.560;10.098;2024-01-11T10:26:34;16.57;;;6.53;;
55292;SDS011;41157;53.560;10.098;2024-01-11T10:29:02;17.90;;;7.00;;
55292;SDS011;41157;53.560;10.098;2024-01-11T10:31:35;17.80;;;8.20;;
55292;SDS011;41157;53.560;10.098;2024-01-11T10:34:03;18.50;;;8.23;;
55292;SDS011;41157;53.560;10.098;2024-01-11T10:36:31;28.53;;;8.33;;
55292;SDS011;41157;53.560;10.098;2024-01-11T10:38:58;18.93;;;8.20;;
55292;SDS011;41157;53.560;10.098;2024-01-11T10:41:28;17.77;;;7.50;;
55292;SDS011;41157;53.560;10.098;2024-01-11T10:43:57;22.20;;;8.40;;
55292;SDS011;41157;53.560;10.098;2024-01-11T10:46:24;26.70;;;9.00;;
55292;SDS011;41157;53.560;10.098;2024-01-11T10:48:53;18.57;;;7.63;;
55292;SDS011;41157;53.560;10.098;2024-01-11T10:51:22;22.03;;;8.57;;
55292;SDS011;41157;53.560;10.098;2024-01-11T10:53:50;27.57;;;10.63;;
55292;SDS011;41157;53.560;10.098;2024-01-11T10:56:18;27.20;;;11.53;;
55292;SDS011;41157;53.560;10.098;2024-01-11T10:58:47;22.00;;;9.23;;
55292;SDS011;41157;53.560;10.098;2024-01-11T11:01:16;20.20;;;9.07;;
55292;SDS011;41157;53.560;10.098;2024-01-11T11:03:43;27.27;;;9.33;;
55292;SDS011;41157;53.560;10.098;2024-01-11T11:06:11;22.43;;;8.63;;
55292;SDS011;41157;53.560;10.098;2024-01-11T11:08:38;20.37;;;7.83;;
55292;SDS011;41157;53.560;10.098;2024-01-11T11:11:06;18.37;;;8.27;;
55292;SDS011;41157;53.560;10.098;2024-01-11T11:13:33;22.53;;;8.50;;
55292;SDS011;41157;53.560;10.098;2024-01-11T11:16:00;21.33;;;9.03;;
55292;SDS011;41157;53.560;10.098;2024-01-11T11:18:30;15.73;;;7.73;;
55292;SDS011;41157;53.560;10.098;2024-01-11T11:20:59;20.53;;;7.80;;
55292;SDS011;41157;53.560;10.098;2024-01-11T11:23:27;16.37;;;7.87;;
55292;SDS011;41157;53.560;10.098;2024-01-11T11:25:54;18.70;;;7.90;;
55292;SDS011;41157;53.560;10.098;2024-01-11T11:28:22;20.80;;;7.97;;
55292;SDS011;41157;53.560;10.098;2024-01-11T11:30:49;18.17;;;8.77;;
55292;SDS011;41157;53.560;10.098;2024-01-11T11:33:17;19.90;;;7.77;;
55292;SDS011;41157;53.560;10.098;2024-01-11T11:35:47;15.53;;;7.80;;
55292;SDS011;41157;53.560;10.098;2024-01-11T11:38:17;16.77;;;8.47;;
55292;SDS011;41157;53.560;10.098;2024-01-11T11:40:46;25.27;;;8.27;;
55292;SDS011;41157;53.560;10.098;2024-01-11T11:43:15;18.53;;;8.27;;
55292;SDS011;41157;53.560;10.098;2024-01-11T11:45:43;17.00;;;8.20;;
55292;SDS011;41157;53.560;10.098;2024-01-11T11:51:02;21.73;;;8.67;;
55292;SDS011;41157;53.560;10.098;2024-01-11T11:53:33;19.20;;;8.13;;
55292;SDS011;41157;53.560;10.098;2024-01-11T11:56:00;20.57;;;8.43;;
55292;SDS011;41157;53.560;10.098;2024-01-11T11:58:27;19.77;;;8.60;;
55292;SDS011;41157;53.560;10.098;2024-01-11T12:00:55;15.80;;;8.37;;
55292;SDS011;41157;53.560;10.098;2024-01-11T12:03:23;18.30;;;9.40;;
55292;SDS011;41157;53.560;10.098;2024-01-11T12:05:50;25.03;;;9.30;;
55292;SDS011;41157;53.560;10.098;2024-01-11T12:08:19;18.57;;;9.00;;
55292;SDS011;41157;53.560;10.098;2024-01-11T12:10:46;18.90;;;9.20;;
55292;SDS011;41157;53.560;10.098;2024-01-11T12:13:13;18.37;;;8.77;;
55292;SDS011;41157;53.560;10.098;2024-01-11T12:15:40;25.03;;;10.00;;
55292;SDS011;41157;53.560;10.098;2024-01-11T12:18:07;18.60;;;9.10;;
55292;SDS011;41157;53.560;10.098;2024-01-11T12:20:34;19.37;;;8.80;;
55292;SDS011;41157;53.560;10.098;2024-01-11T12:23:01;18.33;;;9.00;;
55292;SDS011;41157;53.560;10.098;2024-01-11T12:25:31;19.47;;;8.57;;
55292;SDS011;41157;53.560;10.098;2024-01-11T12:27:58;22.43;;;8.30;;
55292;SDS011;41157;53.560;10.098;2024-01-11T12:30:25;23.13;;;9.87;;
55292;SDS011;41157;53.560;10.098;2024-01-11T12:32:52;19.27;;;8.53;;
55292;SDS011;41157;53.560;10.098;2024-01-11T12:35:19;18.33;;;8.93;;
55292;SDS011;41157;53.560;10.098;2024-01-11T12:37:52;17.90;;;8.80;;
55292;SDS011;41157;53.560;10.098;2024-01-11T12:40:20;19.47;;;9.30;;
55292;SDS011;41157;53.560;10.098;2024-01-11T12:42:48;22.93;;;9.73;;
55292;SDS011;41157;53.560;10.098;2024-01-11T12:45:16;19.73;;;9.93;;
55292;SDS011;41157;53.560;10.098;2024-01-11T12:47:43;22.93;;;10.30;;
55292;SDS011;41157;53.560;10.098;2024-01-11T12:50:10;22.70;;;10.37;;
55292;SDS011;41157;53.560;10.098;2024-01-11T12:52:38;20.73;;;10.10;;
55292;SDS011;41157;53.560;10.098;2024-01-11T12:55:06;23.10;;;10.20;;
55292;SDS011;41157;53.560;10.098;2024-01-11T12:57:34;24.80;;;11.47;;
55292;SDS011;41157;53.560;10.098;2024-01-11T13:00:10;23.47;;;10.90;;
55292;SDS011;41157;53.560;10.098;2024-01-11T13:02:38;22.63;;;10.70;;
55292;SDS011;41157;53.560;10.098;2024-01-11T13:05:05;22.33;;;10.27;;
55292;SDS011;41157;53.560;10.098;2024-01-11T13:07:33;23.57;;;10.77;;
55292;SDS011;41157;53.560;10.098;2024-01-11T13:10:00;20.97;;;10.17;;
55292;SDS011;41157;53.560;10.098;2024-01-11T13:12:28;24.70;;;10.57;;
55292;SDS011;41157;53.560;10.098;2024-01-11T13:14:56;21.40;;;9.27;;
55292;SDS011;41157;53.560;10.098;2024-01-11T13:17:24;22.50;;;11.00;;
55292;SDS011;41157;53.560;10.098;2024-01-11T13:19:52;18.57;;;10.63;;
55292;SDS011;41157;53.560;10.098;2024-01-11T13:22:19;22.50;;;10.20;;
55292;SDS011;41157;53.560;10.098;2024-01-11T13:24:47;20.90;;;10.27;;
55292;SDS011;41157;53.560;10.098;2024-01-11T13:27:14;21.90;;;9.53;;
55292;SDS011;41157;53.560;10.098;2024-01-11T13:29:41;28.17;;;10.23;;
55292;SDS011;41157;53.560;10.098;2024-01-11T13:32:08;24.33;;;10.17;;
55292;SDS011;41157;53.560;10.098;2024-01-11T13:34:37;20.00;;;9.37;;
55292;SDS011;41157;53.560;10.098;2024-01-11T13:37:04;22.50;;;10.73;;
55292;SDS011;41157;53.560;10.098;2024-01-11T13:39:31;24.47;;;10.47;;
55292;SDS011;41157;53.560;10.098;2024-01-11T13:41:58;23.07;;;9.87;;
55292;SDS011;41157;53.560;10.098;2024-01-11T13:44:25;20.63;;;9.70;;
55292;SDS011;41157;53.560;10.098;2024-01-11T13:46:52;24.27;;;10.37;;
55292;SDS011;41157;53.560;10.098;2024-01-11T13:49:19;21.43;;;10.30;;
55292;SDS011;41157;53.560;10.098;2024-01-11T13:51:48;27.00;;;10.97;;
55292;SDS011;41157;53.560;10.098;2024-01-11T13:54:15;27.80;;;11.00;;
55292;SDS011;41157;53.560;10.098;2024-01-11T13:56:42;19.93;;;9.43;;
55292;SDS011;41157;53.560;10.098;2024-01-11T13:59:09;18.17;;;8.93;;
55292;SDS011;41157;53.560;10.098;2024-01-11T14:01:36;21.03;;;10.63;;
55292;SDS011;41157;53.560;10.098;2024-01-11T14:04:04;29.90;;;10.27;;
55292;SDS011;41157;53.560;10.098;2024-01-11T14:06:32;23.13;;;10.03;;
55292;SDS011;41157;53.560;10.098;2024-01-11T14:09:00;25.93;;;9.73;;
55292;SDS011;41157;53.560;10.098;2024-01-11T14:11:29;19.43;;;9.70;;
55292;SDS011;41157;53.560;10.098;2024-01-11T14:13:56;22.80;;;10.03;;
55292;SDS011;41157;53.560;10.098;2024-01-11T14:16:23;20.07;;;10.23;;
55292;SDS011;41157;53.560;10.098;2024-01-11T14:18:50;19.90;;;9.27;;